createdAt,value
2023-03-13T00:01:01.029Z,8.36
2023-03-13T00:02:03.325Z,8.37
2023-03-13T00:03:05.977Z,8.38
2023-03-13T00:04:08.720Z,8.37
2023-03-13T00:05:13.985Z,8.35
2023-03-13T00:06:19.348Z,8.36
2023-03-13T00:07:21.587Z,8.39
2023-03-13T00:08:25.160Z,8.40
2023-03-13T00:09:28.522Z,8.41
2023-03-13T00:10:30.820Z,8.40
2023-03-13T00:11:34.183Z,8.41
2023-03-13T00:12:36.673Z,8.40
2023-03-13T00:13:39.138Z,8.43
2023-03-13T00:14:41.467Z,8.43
2023-03-13T00:15:43.630Z,8.43
2023-03-13T00:16:50.085Z,8.44
2023-03-13T00:17:52.364Z,8.44
2023-03-13T00:18:55.853Z,8.45
2023-03-13T00:19:58.088Z,8.47
2023-03-13T00:21:09.256Z,8.47
2023-03-13T00:22:11.642Z,8.48
2023-03-13T00:23:13.877Z,8.50
2023-03-13T00:24:16.776Z,8.48
2023-03-13T00:25:19.500Z,8.50
2023-03-13T00:26:24.571Z,8.49
2023-03-13T00:27:26.724Z,8.49
2023-03-13T00:28:32.616Z,8.50
2023-03-13T00:29:35.220Z,8.51
2023-03-13T00:30:37.798Z,8.51
2023-03-13T00:31:40.228Z,8.50
2023-03-13T00:32:47.505Z,8.52
2023-03-13T00:33:53.677Z,8.52
2023-03-13T00:34:55.968Z,8.52
2023-03-13T00:36:01.584Z,8.52
2023-03-13T00:37:03.790Z,8.54
2023-03-13T00:38:05.989Z,8.53
2023-03-13T00:39:08.319Z,8.54
2023-03-13T00:40:11.654Z,8.54
2023-03-13T00:41:16.997Z,8.55
2023-03-13T00:42:19.167Z,8.57
2023-03-13T00:43:21.355Z,8.57
2023-03-13T00:44:23.562Z,8.58
2023-03-13T00:45:27.143Z,8.57
2023-03-13T00:46:30.994Z,8.58
2023-03-13T00:47:34.469Z,8.59
2023-03-13T00:48:40.166Z,8.58
2023-03-13T00:49:42.367Z,8.58
2023-03-13T00:50:44.629Z,8.60
2023-03-13T00:51:46.920Z,8.60
2023-03-13T00:52:49.150Z,8.60
2023-03-13T00:53:51.320Z,8.60
2023-03-13T00:54:53.746Z,8.60
2023-03-13T00:56:00.107Z,8.61
2023-03-13T00:57:02.971Z,8.62
2023-03-13T00:58:05.407Z,8.61
2023-03-13T00:59:08.335Z,8.61
2023-03-13T01:00:11.482Z,8.61
2023-03-13T01:01:22.900Z,8.60
2023-03-13T01:02:27.848Z,8.62
2023-03-13T01:03:30.602Z,8.62
2023-03-13T01:04:32.917Z,8.62
2023-03-13T01:05:35.174Z,8.63
2023-03-13T01:06:42.839Z,8.62
2023-03-13T01:07:45.369Z,8.63
2023-03-13T01:08:48.390Z,8.64
2023-03-13T01:09:50.660Z,8.64
2023-03-13T01:11:02.175Z,8.65
2023-03-13T01:12:04.553Z,8.65
2023-03-13T01:13:07.540Z,8.67
2023-03-13T01:14:18.940Z,8.68
2023-03-13T01:15:21.649Z,8.68
2023-03-13T01:16:24.865Z,8.66
2023-03-13T01:17:28.744Z,8.67
2023-03-13T01:18:31.289Z,8.68
2023-03-13T01:19:34.162Z,8.68
2023-03-13T01:20:36.400Z,8.68
2023-03-13T01:21:39.213Z,8.69
2023-03-13T01:22:41.345Z,8.69
2023-03-13T01:23:43.687Z,8.69
2023-03-13T01:24:47.785Z,8.70
2023-03-13T01:25:50.251Z,8.69
2023-03-13T01:26:52.490Z,8.70
2023-03-13T01:27:54.875Z,8.71
2023-03-13T01:28:57.869Z,8.72
2023-03-13T01:30:01.048Z,8.72
2023-03-13T01:31:24.236Z,8.75
2023-03-13T01:32:26.564Z,8.75
2023-03-13T01:33:29.730Z,8.74
2023-03-13T01:34:33.070Z,8.76
2023-03-13T01:35:35.271Z,8.75
2023-03-13T01:36:38.230Z,8.76
2023-03-13T01:37:40.399Z,8.75
2023-03-13T01:38:43.837Z,8.76
2023-03-13T01:39:47.172Z,8.75
2023-03-13T01:40:49.881Z,8.76
2023-03-13T01:41:52.197Z,8.76
2023-03-13T01:43:00.197Z,8.77
2023-03-13T01:44:03.145Z,8.77
2023-03-13T01:45:47.369Z,8.77
2023-03-13T01:46:49.758Z,8.78
2023-03-13T01:48:01.085Z,8.78
2023-03-13T01:49:34.783Z,8.77
2023-03-13T01:50:43.507Z,8.76
2023-03-13T01:52:16.024Z,8.79
2023-03-13T01:53:25.512Z,8.78
2023-03-13T01:54:45.599Z,8.79
2023-03-13T01:55:50.912Z,8.80
2023-03-13T01:57:03.470Z,8.82
2023-03-13T01:58:05.811Z,8.81
2023-03-13T01:59:11.211Z,8.79
2023-03-13T02:00:18.002Z,8.79
2023-03-13T02:01:20.970Z,8.79
2023-03-13T02:02:24.840Z,8.79
2023-03-13T02:03:28.467Z,8.79
2023-03-13T02:04:36.778Z,8.77
2023-03-13T02:05:41.432Z,8.77
2023-03-13T02:06:47.028Z,8.79
2023-03-13T02:08:01.465Z,8.78
2023-03-13T02:09:07.970Z,8.78
2023-03-13T02:10:11.696Z,8.77
2023-03-13T02:11:23.583Z,8.78
2023-03-13T02:12:32.910Z,8.77
2023-03-13T02:13:37.448Z,8.77
2023-03-13T02:14:43.268Z,8.76
2023-03-13T02:15:46.425Z,8.77
2023-03-13T02:16:52.134Z,8.76
2023-03-13T02:17:56.422Z,8.75
2023-03-13T02:19:02.165Z,8.75
2023-03-13T02:20:05.312Z,8.76
2023-03-13T02:21:20.524Z,8.75
2023-03-13T02:22:52.121Z,8.75
2023-03-13T02:24:02.829Z,8.74
2023-03-13T02:25:23.348Z,8.75
2023-03-13T02:26:28.127Z,8.75
2023-03-13T02:27:30.378Z,8.73
2023-03-13T02:28:35.282Z,8.73
2023-03-13T02:29:41.920Z,8.71
2023-03-13T02:30:45.696Z,8.70
2023-03-13T02:31:48.729Z,8.70
2023-03-13T02:32:55.685Z,8.69
2023-03-13T02:34:00.870Z,8.70
2023-03-13T02:35:08.787Z,8.69
2023-03-13T02:36:14.882Z,8.68
2023-03-13T02:37:19.811Z,8.67
2023-03-13T02:38:25.775Z,8.67
2023-03-13T02:39:30.597Z,8.67
2023-03-13T02:40:37.293Z,8.68
2023-03-13T02:41:42.223Z,8.66
2023-03-13T02:42:48.731Z,8.66
2023-03-13T02:43:51.059Z,8.65
2023-03-13T02:44:54.477Z,8.65
2023-03-13T02:46:18.316Z,8.66
2023-03-13T02:47:25.298Z,8.64
2023-03-13T02:48:36.066Z,8.62
2023-03-13T02:49:39.102Z,8.62
2023-03-13T02:50:41.752Z,8.62
2023-03-13T02:51:46.203Z,8.61
2023-03-13T02:53:02.120Z,8.60
2023-03-13T02:54:12.416Z,8.60
2023-03-13T02:55:22.628Z,8.59
2023-03-13T02:56:27.135Z,8.59
2023-03-13T02:57:31.881Z,8.59
2023-03-13T02:58:49.789Z,8.58
2023-03-13T02:59:55.554Z,8.56
2023-03-13T03:00:57.941Z,8.56
2023-03-13T03:02:01.207Z,8.57
2023-03-13T03:03:03.507Z,8.57
2023-03-13T03:04:06.789Z,8.57
2023-03-13T03:05:09.929Z,8.57
2023-03-13T03:06:12.192Z,8.55
2023-03-13T03:07:14.770Z,8.56
2023-03-13T03:08:17.639Z,8.54
2023-03-13T03:09:22.244Z,8.56
2023-03-13T03:10:27.472Z,8.55
2023-03-13T03:11:29.812Z,8.55
2023-03-13T03:12:36.840Z,8.55
2023-03-13T03:13:40.139Z,8.58
2023-03-13T03:14:42.410Z,8.57
2023-03-13T03:15:45.833Z,8.59
2023-03-13T03:16:48.779Z,8.59
2023-03-13T03:17:51.635Z,8.57
2023-03-13T03:18:53.891Z,8.57
2023-03-13T03:19:57.808Z,8.58
2023-03-13T03:21:00.618Z,8.59
2023-03-13T03:22:03.289Z,8.59
2023-03-13T03:23:07.637Z,8.59
2023-03-13T03:24:10.082Z,8.59
2023-03-13T03:25:12.701Z,8.60
2023-03-13T03:26:14.931Z,8.60
2023-03-13T03:27:17.186Z,8.62
2023-03-13T03:28:25.218Z,8.62
2023-03-13T03:29:28.066Z,8.63
2023-03-13T03:30:31.480Z,8.62
2023-03-13T03:31:34.177Z,8.62
2023-03-13T03:32:38.144Z,8.62
2023-03-13T03:33:41.078Z,8.61
2023-03-13T03:34:46.019Z,8.62
2023-03-13T03:35:49.133Z,8.61
2023-03-13T03:36:51.671Z,8.62
2023-03-13T03:37:54.173Z,8.62
2023-03-13T03:38:56.881Z,8.62
2023-03-13T03:40:02.005Z,8.61
2023-03-13T03:41:07.803Z,8.62
2023-03-13T03:42:10.599Z,8.62
2023-03-13T03:43:13.616Z,8.62
2023-03-13T03:44:16.534Z,8.62
2023-03-13T03:45:40.352Z,8.63
2023-03-13T03:46:42.984Z,8.63
2023-03-13T03:47:46.803Z,8.64
2023-03-13T03:48:49.280Z,8.64
2023-03-13T03:49:52.044Z,8.64
2023-03-13T03:50:55.050Z,8.63
2023-03-13T03:51:58.154Z,8.64
2023-03-13T03:53:06.255Z,8.64
2023-03-13T03:54:08.543Z,8.65
2023-03-13T03:55:10.701Z,8.65
2023-03-13T03:56:13.136Z,8.65
2023-03-13T03:57:21.176Z,8.65
2023-03-13T03:58:24.122Z,8.65
2023-03-13T03:59:35.447Z,8.67
2023-03-13T04:00:48.127Z,8.66
2023-03-13T04:01:51.466Z,8.67
2023-03-13T04:02:59.224Z,8.67
2023-03-13T04:04:01.729Z,8.66
2023-03-13T04:05:06.023Z,8.66
2023-03-13T04:06:24.366Z,8.66
2023-03-13T04:07:26.633Z,8.66
2023-03-13T04:08:29.159Z,8.67
2023-03-13T04:09:32.945Z,8.68
2023-03-13T04:10:36.895Z,8.68
2023-03-13T04:11:39.336Z,8.68
2023-03-13T04:12:44.429Z,8.67
2023-03-13T04:13:46.699Z,8.68
2023-03-13T04:14:48.995Z,8.69
2023-03-13T04:15:51.463Z,8.68
2023-03-13T04:16:53.691Z,8.70
2023-03-13T04:17:55.860Z,8.70
2023-03-13T04:18:58.325Z,8.70
2023-03-13T04:20:01.949Z,8.69
2023-03-13T04:21:06.452Z,8.70
2023-03-13T04:22:16.576Z,8.70
2023-03-13T04:23:25.975Z,8.70
2023-03-13T04:24:28.213Z,8.70
2023-03-13T04:25:33.253Z,8.72
2023-03-13T04:26:38.751Z,8.72
2023-03-13T04:27:41.383Z,8.71
2023-03-13T04:28:45.278Z,8.72
2023-03-13T04:29:52.470Z,8.72
2023-03-13T04:31:13.460Z,8.71
2023-03-13T04:32:34.142Z,8.70
2023-03-13T04:33:52.960Z,8.70
2023-03-13T04:35:16.349Z,8.69
2023-03-13T04:36:30.315Z,8.71
2023-03-13T04:37:48.116Z,8.71
2023-03-13T04:39:01.991Z,8.71
2023-03-13T04:40:13.839Z,8.70
2023-03-13T04:41:35.464Z,8.72
2023-03-13T04:42:51.899Z,8.72
2023-03-13T04:44:00.117Z,8.71
2023-03-13T04:45:12.743Z,8.70
2023-03-13T04:46:24.351Z,8.71
2023-03-13T04:47:35.583Z,8.71
2023-03-13T04:49:02.822Z,8.70
2023-03-13T04:50:37.809Z,8.69
2023-03-13T04:51:59.553Z,8.71
2023-03-13T04:53:10.685Z,8.70
2023-03-13T04:54:39.319Z,8.71
2023-03-13T04:55:56.775Z,8.69
2023-03-13T04:57:15.972Z,8.70
2023-03-13T04:58:38.627Z,8.72
2023-03-13T04:59:47.242Z,8.71
2023-03-13T05:01:02.980Z,8.74
2023-03-13T05:02:24.107Z,8.72
2023-03-13T05:03:44.804Z,8.72
2023-03-13T05:05:14.526Z,8.75
2023-03-13T05:06:49.817Z,8.76
2023-03-13T05:08:08.849Z,8.76
2023-03-13T05:09:20.140Z,8.75
2023-03-13T05:10:33.304Z,8.74
2023-03-13T05:11:38.482Z,8.75
2023-03-13T05:13:09.921Z,8.75
2023-03-13T05:14:30.618Z,8.75
2023-03-13T05:16:02.675Z,8.76
2023-03-13T05:17:23.569Z,8.76
2023-03-13T05:18:25.728Z,8.77
2023-03-13T05:19:47.702Z,8.77
2023-03-13T05:21:03.063Z,8.78
2023-03-13T05:22:18.201Z,8.80
2023-03-13T05:23:42.059Z,8.80
2023-03-13T05:24:59.800Z,8.81
2023-03-13T05:26:12.115Z,8.81
2023-03-13T05:27:34.543Z,8.84
2023-03-13T05:28:56.714Z,8.83
2023-03-13T05:30:09.841Z,8.84
2023-03-13T05:31:24.880Z,8.85
2023-03-13T05:32:48.346Z,8.86
2023-03-13T05:34:10.592Z,8.87
2023-03-13T05:35:31.127Z,8.87
2023-03-13T05:36:46.506Z,8.88
2023-03-13T05:37:55.822Z,8.88
2023-03-13T05:39:20.545Z,8.90
2023-03-13T05:40:24.609Z,8.90
2023-03-13T05:41:45.567Z,8.90
2023-03-13T05:43:07.241Z,8.92
2023-03-13T05:44:28.322Z,8.92
2023-03-13T05:45:49.398Z,8.95
2023-03-13T05:47:12.925Z,8.95
2023-03-13T05:48:40.415Z,8.96
2023-03-13T05:50:12.210Z,8.99
2023-03-13T05:51:40.925Z,9.00
2023-03-13T05:53:13.561Z,9.01
2023-03-13T05:54:28.437Z,9.01
2023-03-13T05:55:44.745Z,9.04
2023-03-13T05:57:19.175Z,9.07
2023-03-13T05:58:56.565Z,9.06
2023-03-13T06:00:26.532Z,9.06
2023-03-13T06:01:55.824Z,9.07
2023-03-13T06:03:06.885Z,9.08
2023-03-13T06:04:13.456Z,9.07
2023-03-13T06:05:16.756Z,9.08
2023-03-13T06:06:20.049Z,9.08
2023-03-13T06:07:30.251Z,9.09
2023-03-13T06:08:33.188Z,9.10
2023-03-13T06:09:35.919Z,9.12
2023-03-13T06:10:39.783Z,9.13
2023-03-13T06:11:42.603Z,9.13
2023-03-13T06:13:13.726Z,9.14
2023-03-13T06:14:20.280Z,9.15
2023-03-13T06:15:36.100Z,9.16
2023-03-13T06:16:49.061Z,9.17
2023-03-13T06:17:55.346Z,9.18
2023-03-13T06:18:58.412Z,9.19
2023-03-13T06:20:00.859Z,9.19
2023-03-13T06:21:03.477Z,9.20
2023-03-13T06:22:05.748Z,9.23
2023-03-13T06:23:08.226Z,9.21
2023-03-13T06:24:10.826Z,9.24
2023-03-13T06:25:14.773Z,9.24
2023-03-13T06:26:17.667Z,9.24
2023-03-13T06:27:21.195Z,9.27
2023-03-13T06:28:23.438Z,9.27
2023-03-13T06:29:25.764Z,9.29
2023-03-13T06:30:27.959Z,9.31
2023-03-13T06:31:30.735Z,9.32
2023-03-13T06:32:33.402Z,9.32
2023-03-13T06:33:35.860Z,9.33
2023-03-13T06:34:38.115Z,9.35
2023-03-13T06:35:55.245Z,9.36
2023-03-13T06:37:01.392Z,9.36
2023-03-13T06:38:04.867Z,9.39
2023-03-13T06:39:07.344Z,9.40
2023-03-13T06:40:10.612Z,9.42
2023-03-13T06:41:14.768Z,9.42
2023-03-13T06:42:17.082Z,9.43
2023-03-13T06:43:20.974Z,9.45
2023-03-13T06:44:23.235Z,9.44
2023-03-13T06:45:27.266Z,9.45
2023-03-13T06:46:29.759Z,9.47
2023-03-13T06:47:32.871Z,9.48
2023-03-13T06:48:35.708Z,9.49
2023-03-13T06:49:38.225Z,9.51
2023-03-13T06:50:44.811Z,9.52
2023-03-13T06:51:47.177Z,9.54
2023-03-13T06:52:49.475Z,9.56
2023-03-13T06:53:52.599Z,9.57
2023-03-13T06:54:56.133Z,9.59
2023-03-13T06:56:01.115Z,9.61
2023-03-13T06:57:03.433Z,9.61
2023-03-13T06:58:05.652Z,9.62
2023-03-13T06:59:08.039Z,9.64
2023-03-13T07:00:11.850Z,9.65
2023-03-13T07:01:16.145Z,9.68
2023-03-13T07:02:19.471Z,9.69
2023-03-13T07:03:21.731Z,9.73
2023-03-13T07:04:25.211Z,9.74
2023-03-13T07:05:27.628Z,9.76
2023-03-13T07:06:30.152Z,9.76
2023-03-13T07:07:33.676Z,9.78
2023-03-13T07:08:36.982Z,9.82
2023-03-13T07:09:39.254Z,9.82
2023-03-13T07:10:43.280Z,9.84
2023-03-13T07:11:47.796Z,9.85
2023-03-13T07:12:50.008Z,9.88
2023-03-13T07:14:03.259Z,9.89
2023-03-13T07:15:14.609Z,9.90
2023-03-13T07:16:20.599Z,9.93
2023-03-13T07:17:22.944Z,9.94
2023-03-13T07:18:25.311Z,9.95
2023-03-13T07:19:27.614Z,9.97
2023-03-13T07:20:31.188Z,9.98
2023-03-13T07:21:36.428Z,10.00
2023-03-13T07:22:38.590Z,10.00
2023-03-13T07:23:41.621Z,10.02
2023-03-13T07:24:43.928Z,10.04
2023-03-13T07:26:03.416Z,10.06
2023-03-13T07:27:08.176Z,10.07
2023-03-13T07:28:10.649Z,10.07
2023-03-13T07:29:15.336Z,10.08
2023-03-13T07:30:19.435Z,10.09
2023-03-13T07:31:23.979Z,10.10
2023-03-13T07:32:26.284Z,10.13
2023-03-13T07:33:28.655Z,10.13
2023-03-13T07:34:30.866Z,10.15
2023-03-13T07:35:35.915Z,10.16
2023-03-13T07:36:41.927Z,10.16
2023-03-13T07:37:47.781Z,10.18
2023-03-13T07:38:50.859Z,10.18
2023-03-13T07:39:54.930Z,10.20
2023-03-13T07:40:58.347Z,10.19
2023-03-13T07:42:00.512Z,10.18
2023-03-13T07:43:04.284Z,10.18
2023-03-13T07:44:07.007Z,10.19
2023-03-13T07:45:09.747Z,10.20
2023-03-13T07:46:18.905Z,10.20
2023-03-13T07:47:21.167Z,10.21
2023-03-13T07:48:28.860Z,10.22
2023-03-13T07:49:31.036Z,10.20
2023-03-13T07:50:33.359Z,10.19
2023-03-13T07:51:43.509Z,10.20
2023-03-13T07:52:46.003Z,10.18
2023-03-13T07:53:48.698Z,10.19
2023-03-13T07:54:50.973Z,10.18
2023-03-13T07:55:59.589Z,10.17
2023-03-13T07:57:03.324Z,10.16
2023-03-13T07:58:05.544Z,10.16
2023-03-13T07:59:08.089Z,10.16
2023-03-13T08:00:16.549Z,10.16
2023-03-13T08:01:30.339Z,10.17
2023-03-13T08:02:34.863Z,10.18
2023-03-13T08:03:39.726Z,10.16
2023-03-13T08:04:42.733Z,10.17
2023-03-13T08:05:44.950Z,10.16
2023-03-13T08:06:47.205Z,10.16
2023-03-13T08:07:49.406Z,10.18
2023-03-13T08:08:53.894Z,10.15
2023-03-13T08:09:56.096Z,10.16
2023-03-13T08:11:11.345Z,10.16
2023-03-13T08:12:33.873Z,10.17
2023-03-13T08:13:43.923Z,10.16
2023-03-13T08:14:57.521Z,10.18
2023-03-13T08:16:14.832Z,10.15
2023-03-13T08:17:17.136Z,10.17
2023-03-13T08:18:28.470Z,10.16
2023-03-13T08:19:31.097Z,10.15
2023-03-13T08:20:34.462Z,10.16
2023-03-13T08:21:38.061Z,10.16
2023-03-13T08:22:40.273Z,10.16
2023-03-13T08:23:43.114Z,10.15
2023-03-13T08:24:47.327Z,10.16
2023-03-13T08:25:49.834Z,10.17
2023-03-13T08:26:51.999Z,10.17
2023-03-13T08:27:55.115Z,10.17
2023-03-13T08:29:03.790Z,10.18
2023-03-13T08:30:07.262Z,10.17
2023-03-13T08:31:14.124Z,10.18
2023-03-13T08:32:18.442Z,10.18
2023-03-13T08:33:22.036Z,10.19
2023-03-13T08:34:24.209Z,10.20
2023-03-13T08:35:26.444Z,10.20
2023-03-13T08:36:32.947Z,10.21
2023-03-13T08:37:35.250Z,10.23
2023-03-13T08:38:39.470Z,10.23
2023-03-13T08:39:41.713Z,10.23
2023-03-13T08:40:43.872Z,10.24
2023-03-13T08:41:48.840Z,10.26
2023-03-13T08:42:51.059Z,10.25
2023-03-13T08:43:54.740Z,10.27
2023-03-13T08:44:57.000Z,10.27
2023-03-13T08:46:00.328Z,10.29
2023-03-13T08:47:02.572Z,10.29
2023-03-13T08:48:05.868Z,10.31
2023-03-13T08:49:08.849Z,10.32
2023-03-13T08:50:14.280Z,10.33
2023-03-13T08:51:16.605Z,10.35
2023-03-13T08:52:18.952Z,10.36
2023-03-13T08:53:21.090Z,10.36
2023-03-13T08:54:23.282Z,10.37
2023-03-13T08:55:26.608Z,10.38
2023-03-13T08:56:33.280Z,10.39
2023-03-13T08:57:35.520Z,10.42
2023-03-13T08:58:38.388Z,10.43
2023-03-13T08:59:40.584Z,10.43
2023-03-13T09:00:42.863Z,10.46
2023-03-13T09:01:45.181Z,10.46
2023-03-13T09:02:47.588Z,10.49
2023-03-13T09:03:50.505Z,10.51
2023-03-13T09:04:53.751Z,10.50
2023-03-13T09:06:00.369Z,10.52
2023-03-13T09:07:02.855Z,10.54
2023-03-13T09:08:05.245Z,10.57
2023-03-13T09:09:08.364Z,10.58
2023-03-13T09:10:11.955Z,10.58
2023-03-13T09:11:19.166Z,10.60
2023-03-13T09:12:30.865Z,10.63
2023-03-13T09:13:35.731Z,10.66
2023-03-13T09:14:37.968Z,10.67
2023-03-13T09:15:40.341Z,10.68
2023-03-13T09:16:42.502Z,10.70
2023-03-13T09:17:44.901Z,10.70
2023-03-13T09:18:50.304Z,10.72
2023-03-13T09:20:00.028Z,10.73
2023-03-13T09:21:03.933Z,10.75
2023-03-13T09:22:08.696Z,10.75
2023-03-13T09:23:12.839Z,10.77
2023-03-13T09:24:15.959Z,10.79
2023-03-13T09:25:19.595Z,10.80
2023-03-13T09:26:23.345Z,10.81
2023-03-13T09:27:25.794Z,10.84
2023-03-13T09:28:28.838Z,10.83
2023-03-13T09:29:31.097Z,10.83
2023-03-13T09:30:35.723Z,10.86
2023-03-13T09:31:38.624Z,10.88
2023-03-13T09:32:40.820Z,10.89
2023-03-13T09:33:46.698Z,10.90
2023-03-13T09:34:49.075Z,10.93
2023-03-13T09:35:51.763Z,10.95
2023-03-13T09:36:53.972Z,10.96
2023-03-13T09:37:57.157Z,10.96
2023-03-13T09:39:00.913Z,10.97
2023-03-13T09:40:05.904Z,10.98
2023-03-13T09:41:17.167Z,10.99
2023-03-13T09:42:23.921Z,11.00
2023-03-13T09:43:41.154Z,11.02
2023-03-13T09:44:50.081Z,11.02
2023-03-13T09:45:57.604Z,11.04
2023-03-13T09:47:13.306Z,11.05
2023-03-13T09:48:36.296Z,11.07
2023-03-13T09:49:42.943Z,11.08
2023-03-13T09:50:55.808Z,11.09
2023-03-13T09:52:34.667Z,11.10
2023-03-13T09:53:49.726Z,11.12
2023-03-13T09:55:20.729Z,11.13
2023-03-13T09:56:28.140Z,11.15
2023-03-13T09:57:49.746Z,11.16
2023-03-13T09:58:59.069Z,11.18
2023-03-13T10:00:30.855Z,11.21
2023-03-13T10:01:35.865Z,11.23
2023-03-13T10:02:38.945Z,11.24
2023-03-13T10:03:55.708Z,11.25
2023-03-13T10:05:13.709Z,11.27
2023-03-13T10:06:21.918Z,11.29
2023-03-13T10:07:24.092Z,11.31
2023-03-13T10:08:30.440Z,11.33
2023-03-13T10:09:33.990Z,11.36
2023-03-13T10:10:44.534Z,11.39
2023-03-13T10:12:12.472Z,11.42
2023-03-13T10:13:22.850Z,11.45
2023-03-13T10:14:53.234Z,11.47
2023-03-13T10:16:02.675Z,11.48
2023-03-13T10:17:13.073Z,11.52
2023-03-13T10:18:20.602Z,11.53
2023-03-13T10:19:31.588Z,11.55
2023-03-13T10:20:36.380Z,11.57
2023-03-13T10:21:41.033Z,11.59
2023-03-13T10:22:49.194Z,11.61
2023-03-13T10:24:38.205Z,11.64
2023-03-13T10:25:40.529Z,11.66
2023-03-13T10:26:42.711Z,11.69
2023-03-13T10:27:51.403Z,11.70
2023-03-13T10:28:54.730Z,11.73
2023-03-13T10:29:58.300Z,11.75
2023-03-13T10:31:41.792Z,11.78
2023-03-13T10:32:45.537Z,11.79
2023-03-13T10:33:48.144Z,11.82
2023-03-13T10:34:51.372Z,11.82
2023-03-13T10:36:11.053Z,11.86
2023-03-13T10:37:20.355Z,11.88
2023-03-13T10:38:25.238Z,11.91
2023-03-13T10:39:29.653Z,11.94
2023-03-13T10:40:32.100Z,11.97
2023-03-13T10:41:37.182Z,11.98
2023-03-13T10:42:45.720Z,12.01
2023-03-13T10:43:59.954Z,12.03
2023-03-13T10:45:05.280Z,12.06
2023-03-13T10:46:09.222Z,12.09
2023-03-13T10:47:14.510Z,12.09
2023-03-13T10:48:22.998Z,12.12
2023-03-13T10:49:27.676Z,12.13
2023-03-13T10:50:34.950Z,12.16
2023-03-13T10:51:39.625Z,12.17
2023-03-13T10:52:47.599Z,12.19
2023-03-13T10:53:52.891Z,12.24
2023-03-13T10:55:11.615Z,12.25
2023-03-13T10:56:17.333Z,12.26
2023-03-13T10:57:19.478Z,12.29
2023-03-13T10:58:30.441Z,12.32
2023-03-13T10:59:39.144Z,12.34
2023-03-13T11:00:42.640Z,12.37
2023-03-13T11:01:45.372Z,12.39
2023-03-13T11:02:47.712Z,12.42
2023-03-13T11:03:52.861Z,12.43
2023-03-13T11:04:56.760Z,12.44
2023-03-13T11:06:04.037Z,12.48
2023-03-13T11:07:15.774Z,12.46
2023-03-13T11:08:34.056Z,12.49
2023-03-13T11:09:37.975Z,12.53
2023-03-13T11:10:56.944Z,12.56
2023-03-13T11:12:27.268Z,12.59
2023-03-13T11:13:43.068Z,12.61
2023-03-13T11:14:45.768Z,12.63
2023-03-13T11:15:57.553Z,12.64
2023-03-13T11:17:15.370Z,12.66
2023-03-13T11:18:55.076Z,12.70
2023-03-13T11:20:14.018Z,12.73
2023-03-13T11:21:24.822Z,12.73
2023-03-13T11:22:46.666Z,12.78
2023-03-13T11:24:04.408Z,12.79
2023-03-13T11:25:58.889Z,12.81
2023-03-13T11:27:15.453Z,12.84
2023-03-13T11:28:36.748Z,12.85
2023-03-13T11:29:55.493Z,12.87
2023-03-13T11:31:18.105Z,12.87
2023-03-13T11:32:26.911Z,12.89
2023-03-13T11:33:47.626Z,12.89
2023-03-13T11:34:56.467Z,12.91
2023-03-13T11:36:07.490Z,12.92
2023-03-13T11:37:13.477Z,12.93
2023-03-13T11:38:34.367Z,12.93
2023-03-13T11:39:42.699Z,12.94
2023-03-13T11:41:21.030Z,12.95
2023-03-13T11:42:44.708Z,12.96
2023-03-13T11:44:09.022Z,12.95
2023-03-13T11:45:39.319Z,12.97
2023-03-13T11:47:05.411Z,12.99
2023-03-13T11:48:23.904Z,12.98
2023-03-13T11:49:39.798Z,12.97
2023-03-13T11:51:14.623Z,12.97
2023-03-13T11:52:45.279Z,12.99
2023-03-13T11:54:25.563Z,12.99
2023-03-13T11:55:54.201Z,12.99
2023-03-13T11:56:58.854Z,12.99
2023-03-13T11:58:07.152Z,12.98
2023-03-13T11:59:37.773Z,12.99
2023-03-13T12:00:50.846Z,12.99
2023-03-13T12:01:59.399Z,12.99
2023-03-13T12:03:25.708Z,12.99
2023-03-13T12:04:40.056Z,12.98
2023-03-13T12:05:52.197Z,12.98
2023-03-13T12:07:29.846Z,12.98
2023-03-13T12:08:41.500Z,12.99
2023-03-13T12:09:49.902Z,12.99
2023-03-13T12:11:07.368Z,12.99
2023-03-13T12:12:20.007Z,12.99
2023-03-13T12:14:22.625Z,13.01
2023-03-13T12:15:45.870Z,13.03
2023-03-13T12:16:57.272Z,13.04
2023-03-13T12:18:25.425Z,13.06
2023-03-13T12:19:34.723Z,13.08
2023-03-13T12:20:53.908Z,13.10
2023-03-13T12:22:04.660Z,13.10
2023-03-13T12:23:07.113Z,13.13
2023-03-13T12:24:23.051Z,13.15
2023-03-13T12:25:34.470Z,13.15
2023-03-13T12:26:46.572Z,13.18
2023-03-13T12:27:54.001Z,13.21
2023-03-13T12:29:33.529Z,13.24
2023-03-13T12:30:53.066Z,13.30
2023-03-13T12:32:04.577Z,13.34
2023-03-13T12:33:20.297Z,13.38
2023-03-13T12:34:36.240Z,13.40
2023-03-13T12:35:44.377Z,13.43
2023-03-13T12:37:12.696Z,13.47
2023-03-13T12:38:26.177Z,13.51
2023-03-13T12:39:52.189Z,13.55
2023-03-13T12:41:11.139Z,13.60
2023-03-13T12:42:50.216Z,13.63
2023-03-13T12:44:07.624Z,13.69
2023-03-13T12:45:25.123Z,13.73
2023-03-13T12:46:39.267Z,13.77
2023-03-13T12:48:04.616Z,13.81
2023-03-13T12:49:15.552Z,13.85
2023-03-13T12:50:42.007Z,13.88
2023-03-13T12:51:50.112Z,13.91
2023-03-13T12:52:58.931Z,13.96
2023-03-13T12:54:06.981Z,13.98
2023-03-13T12:55:44.394Z,14.01
2023-03-13T12:56:52.784Z,14.06
2023-03-13T12:58:15.132Z,14.08
2023-03-13T12:59:48.220Z,14.13
2023-03-13T13:00:52.109Z,14.15
2023-03-13T13:01:55.882Z,14.18
2023-03-13T13:03:08.010Z,14.20
2023-03-13T13:04:17.284Z,14.18
2023-03-13T13:05:23.625Z,14.22
2023-03-13T13:06:28.674Z,14.25
2023-03-13T13:07:34.576Z,14.24
2023-03-13T13:09:07.805Z,14.26
2023-03-13T13:10:13.024Z,14.29
2023-03-13T13:11:33.832Z,14.31
2023-03-13T13:12:38.738Z,14.34
2023-03-13T13:13:42.198Z,14.35
2023-03-13T13:14:52.609Z,14.38
2023-03-13T13:16:05.375Z,14.42
2023-03-13T13:17:25.936Z,14.42
2023-03-13T13:18:33.771Z,14.46
2023-03-13T13:19:39.183Z,14.48
2023-03-13T13:20:48.763Z,14.50
2023-03-13T13:22:29.787Z,14.52
2023-03-13T13:23:38.790Z,14.59
2023-03-13T13:24:50.863Z,14.61
2023-03-13T13:25:56.699Z,14.65
2023-03-13T13:26:59.465Z,14.68
2023-03-13T13:28:35.578Z,14.72
2023-03-13T13:29:52.788Z,14.73
2023-03-13T13:30:56.713Z,14.77
2023-03-13T13:32:01.517Z,14.80
2023-03-13T13:33:19.823Z,14.82
2023-03-13T13:34:28.211Z,14.85
2023-03-13T13:35:37.040Z,14.85
2023-03-13T13:36:42.839Z,14.87
2023-03-13T13:37:47.589Z,14.89
2023-03-13T13:38:52.031Z,14.93
2023-03-13T13:39:55.453Z,14.96
2023-03-13T13:41:09.655Z,14.99
2023-03-13T13:42:30.960Z,15.03
2023-03-13T13:43:35.755Z,15.04
2023-03-13T13:45:04.402Z,15.08
2023-03-13T13:46:34.173Z,15.11
2023-03-13T13:47:40.093Z,15.12
2023-03-13T13:48:45.931Z,15.13
2023-03-13T13:50:19.092Z,15.15
2023-03-13T13:51:24.385Z,15.15
2023-03-13T13:52:34.861Z,15.17
2023-03-13T13:54:05.578Z,15.18
2023-03-13T13:55:41.238Z,15.16
2023-03-13T13:56:47.832Z,15.17
2023-03-13T13:57:52.281Z,15.17
2023-03-13T13:59:03.056Z,15.17
2023-03-13T14:00:19.783Z,15.18
2023-03-13T14:01:22.068Z,15.18
2023-03-13T14:02:30.657Z,15.18
2023-03-13T14:03:34.919Z,15.18
2023-03-13T14:04:51.445Z,15.18
2023-03-13T14:05:59.573Z,15.18
2023-03-13T14:07:04.539Z,15.17
2023-03-13T14:08:14.488Z,15.17
2023-03-13T14:09:59.620Z,15.16
2023-03-13T14:11:27.725Z,15.16
2023-03-13T14:12:35.828Z,15.19
2023-03-13T14:13:40.619Z,15.18
2023-03-13T14:14:42.859Z,15.18
2023-03-13T14:15:55.704Z,15.17
2023-03-13T14:16:58.299Z,15.18
2023-03-13T14:18:23.334Z,15.19
2023-03-13T14:19:34.784Z,15.18
2023-03-13T14:20:39.726Z,15.19
2023-03-13T14:21:42.142Z,15.22
2023-03-13T14:22:46.747Z,15.22
2023-03-13T14:23:49.475Z,15.22
2023-03-13T14:24:58.965Z,15.22
2023-03-13T14:26:24.708Z,15.23
2023-03-13T14:27:26.873Z,15.25
2023-03-13T14:28:29.493Z,15.25
2023-03-13T14:29:31.847Z,15.23
2023-03-13T14:30:34.215Z,15.22
2023-03-13T14:31:39.305Z,15.22
2023-03-13T14:32:42.079Z,15.22
2023-03-13T14:33:44.430Z,15.23
2023-03-13T14:34:46.676Z,15.25
2023-03-13T14:35:49.758Z,15.24
2023-03-13T14:37:16.925Z,15.25
2023-03-13T14:38:25.317Z,15.26
2023-03-13T14:39:33.656Z,15.24
2023-03-13T14:40:39.531Z,15.24
2023-03-13T14:41:46.695Z,15.24
2023-03-13T14:42:55.396Z,15.23
2023-03-13T14:44:04.986Z,15.25
2023-03-13T14:45:19.794Z,15.25
2023-03-13T14:46:32.989Z,15.26
2023-03-13T14:47:35.315Z,15.26
2023-03-13T14:48:38.752Z,15.27
2023-03-13T14:49:46.310Z,15.29
2023-03-13T14:50:55.754Z,15.28
2023-03-13T14:52:13.945Z,15.27
2023-03-13T14:53:22.063Z,15.29
2023-03-13T14:54:51.434Z,15.30
2023-03-13T14:56:19.294Z,15.30
2023-03-13T14:57:27.501Z,15.31
2023-03-13T14:58:31.632Z,15.32
2023-03-13T14:59:34.368Z,15.32
2023-03-13T15:00:43.577Z,15.33
2023-03-13T15:01:46.845Z,15.32
2023-03-13T15:02:49.442Z,15.34
2023-03-13T15:03:52.594Z,15.34
2023-03-13T15:04:59.819Z,15.34
2023-03-13T15:06:03.506Z,15.35